»·PEaware :: BAW284 KSFO-EGLL

BAW284 :: KSFO-EGLL

FLIGHT INFORMATION

Flight Status: Arrived
Operator:
British Airways
More flights by this operator :: More flights under this callsign
Pilot: Anonymous 13363 (13363)
Aircraft: BOEING 747-400 (WINGLETS)
(B744)
More flights by this aircraft type
Origin: KSFO San Francisco Intl
United States
Destination: EGLL Heathrow
United Kingdom
More flights between these airports :: More routes between these airports
Route: SNTNA2 ORRCA FMG KU06O YYN J530 YQD 58N090W DUGNO TEFFO BERUS EMBOK 63N050W 62N040W 60N030W 58N020W BILTO SOVED NIBOG KELLY UL10 WAL UY53 NUGRA BNN1B
File this flight plan on PilotEdge
Remarks:
Altitude:
(Current/Filed)
33,000ft
Speed:
(Current/Filed)
505kts
Departed: 17-Mar-18 06:02 PM
Arrived: 18-Mar-18 08:39 AM
Distance/Time
Traveled:
4649nm/14:37
Distance/Time
To Go:
Arrived

Flight Plot

Page will automatically refresh every two minutes.

Flight plan parsing failed; only flown route is shown


Map Options




Map Legend


Flown Route
Filed Route
Departure Airport
Arrival Airport
Navaid (VOR, NDB)
Fix

Horizontal Profiles

Position Reports

Time Latitude Longitude Heading Altitude Ground
Speed
17-Mar-18 16:45 37.612708 -122.390276 117 26ft 0kts
17-Mar-18 16:46 37.612708 -122.390276 117 26ft 0kts
17-Mar-18 16:47 37.612708 -122.390276 117 26ft 0kts
17-Mar-18 16:48 37.612708 -122.390276 117 26ft 0kts
17-Mar-18 16:49 37.612708 -122.390276 117 26ft 0kts
17-Mar-18 16:50 37.612708 -122.390276 117 26ft 0kts
17-Mar-18 16:51 37.612708 -122.390276 117 26ft 0kts
17-Mar-18 16:52 37.612708 -122.390276 117 26ft 0kts
17-Mar-18 16:53 37.612708 -122.390276 117 26ft 0kts
17-Mar-18 16:54 37.612708 -122.390276 117 26ft 0kts
17-Mar-18 16:55 37.612708 -122.390276 117 26ft 0kts
17-Mar-18 16:56 37.612708 -122.390276 117 26ft 0kts
17-Mar-18 16:57 37.612708 -122.390276 117 26ft 0kts
17-Mar-18 16:58 37.612708 -122.390276 117 26ft 0kts
17-Mar-18 16:59 37.612708 -122.390276 117 26ft 0kts
17-Mar-18 17:00 37.612708 -122.390276 117 26ft 0kts
17-Mar-18 17:01 37.612708 -122.390276 117 26ft 0kts
17-Mar-18 17:02 37.612708 -122.390276 117 26ft 0kts
17-Mar-18 17:03 37.612708 -122.390276 117 26ft 0kts
17-Mar-18 17:04 37.612708 -122.390276 117 26ft 0kts
17-Mar-18 17:05 37.612708 -122.390276 117 26ft 0kts
17-Mar-18 17:06 37.612708 -122.390276 117 26ft 0kts
17-Mar-18 17:07 37.612708 -122.390276 117 26ft 0kts
17-Mar-18 17:08 37.612708 -122.390276 117 26ft 0kts
17-Mar-18 17:09 37.612708 -122.390276 117 26ft 0kts
17-Mar-18 17:10 37.612708 -122.390276 117 26ft 0kts
17-Mar-18 17:11 37.612708 -122.390276 117 26ft 0kts
17-Mar-18 17:12 37.612708 -122.390276 117 26ft 0kts
17-Mar-18 17:13 37.612708 -122.390276 117 26ft 0kts
17-Mar-18 17:14 37.612708 -122.390276 117 26ft 0kts
17-Mar-18 17:15 37.612708 -122.390276 117 26ft 0kts
17-Mar-18 17:16 37.612708 -122.390276 117 26ft 0kts
17-Mar-18 17:17 37.612708 -122.390276 117 26ft 0kts
17-Mar-18 17:18 37.612708 -122.390276 117 26ft 0kts
17-Mar-18 17:19 37.612708 -122.390276 117 26ft 0kts
17-Mar-18 17:20 37.612708 -122.390276 117 26ft 0kts
17-Mar-18 17:21 37.612708 -122.390276 117 26ft 0kts
17-Mar-18 17:22 37.612708 -122.390276 117 26ft 0kts
17-Mar-18 17:23 37.612708 -122.390276 117 26ft 0kts
17-Mar-18 17:24 37.612708 -122.390276 117 26ft 0kts
17-Mar-18 17:25 37.612708 -122.390276 117 26ft 0kts
17-Mar-18 17:26 37.612708 -122.390276 117 26ft 0kts
17-Mar-18 17:27 37.612708 -122.390276 117 26ft 0kts
17-Mar-18 17:28 37.612708 -122.390276 117 26ft 0kts
17-Mar-18 17:29 37.612708 -122.390276 117 26ft 0kts
17-Mar-18 17:30 37.612708 -122.390276 117 26ft 0kts
17-Mar-18 17:31 37.612708 -122.390276 117 26ft 0kts
17-Mar-18 17:32 37.612708 -122.390276 117 26ft 0kts
17-Mar-18 17:33 37.612708 -122.390276 117 26ft 0kts
17-Mar-18 17:34 37.612708 -122.390276 117 26ft 0kts
17-Mar-18 17:35 37.612708 -122.390276 117 26ft 0kts
17-Mar-18 17:36 37.612708 -122.390276 117 26ft 0kts
17-Mar-18 17:37 37.612708 -122.390276 117 26ft 0kts
17-Mar-18 17:38 37.612708 -122.390276 117 26ft 0kts
17-Mar-18 17:39 37.612708 -122.390276 117 26ft 0kts
17-Mar-18 17:40 37.613001 -122.390798 140 26ft 2kts
17-Mar-18 17:41 37.613775 -122.391011 197 26ft 2kts
17-Mar-18 17:42 37.613852 -122.390977 202 26ft 0kts
17-Mar-18 17:43 37.613852 -122.390977 202 26ft 0kts
17-Mar-18 17:44 37.613852 -122.390977 202 26ft 0kts
17-Mar-18 17:45 37.613852 -122.390977 202 26ft 0kts
17-Mar-18 17:46 37.613845 -122.390981 202 26ft 0kts
17-Mar-18 17:47 37.613477 -122.391176 202 26ft 4kts
17-Mar-18 17:48 37.611845 -122.391780 175 26ft 4kts
17-Mar-18 17:49 37.610213 -122.390028 108 26ft 13kts
17-Mar-18 17:50 37.610561 -122.386596 117 26ft 11kts
17-Mar-18 17:51 37.607747 -122.384895 178 26ft 21kts
17-Mar-18 17:52 37.605209 -122.382315 115 26ft 11kts
17-Mar-18 17:53 37.606460 -122.378997 29 26ft 18kts
17-Mar-18 17:54 37.610961 -122.376002 28 26ft 16kts
17-Mar-18 17:55 37.614555 -122.373643 30 26ft 12kts
17-Mar-18 17:56 37.615171 -122.370161 119 26ft 10kts
17-Mar-18 17:57 37.613504 -122.367354 117 26ft 9kts
17-Mar-18 17:58 37.612408 -122.364706 118 26ft 7kts
17-Mar-18 17:59 37.610585 -122.359491 57 26ft 15kts
17-Mar-18 18:00 37.611897 -122.358692 297 26ft 5kts
17-Mar-18 18:01 37.619414 -122.376622 297 26ft 151kts
17-Mar-18 18:02 37.642109 -122.428335 298 1893ft 173kts
17-Mar-18 18:03 37.667791 -122.489445 297 3008ft 230kts
17-Mar-18 18:04 37.729039 -122.528322 355 4736ft 275kts
17-Mar-18 18:05 37.803929 -122.509472 41 6986ft 294kts
17-Mar-18 18:06 37.849654 -122.421387 53 9173ft 307kts
17-Mar-18 18:07 37.906442 -122.335036 46 10558ft 346kts
17-Mar-18 18:08 37.975394 -122.235386 47 11859ft 394kts
17-Mar-18 18:09 38.049056 -122.128394 47 14382ft 407kts
17-Mar-18 18:10 38.125007 -122.018731 47 16959ft 420kts
17-Mar-18 18:11 38.202969 -121.905189 47 19298ft 433kts
17-Mar-18 18:12 38.283533 -121.787844 47 21399ft 445kts
17-Mar-18 18:13 38.365482 -121.667140 47 23353ft 456kts
17-Mar-18 18:14 38.449424 -121.542598 48 25067ft 468kts
17-Mar-18 18:15 38.528712 -121.407537 49 26553ft 482kts
17-Mar-18 18:16 38.609324 -121.268971 49 28246ft 486kts
17-Mar-18 18:17 38.690584 -121.130304 48 29995ft 486kts
17-Mar-18 18:18 38.771687 -120.991385 48 31490ft 489kts
17-Mar-18 18:19 38.852979 -120.851102 49 32869ft 492kts
17-Mar-18 18:20 38.933576 -120.711355 49 33071ft 479kts
17-Mar-18 18:21 39.012435 -120.574027 49 33023ft 477kts
17-Mar-18 18:22 39.091412 -120.435905 49 32989ft 478kts
17-Mar-18 18:23 39.170038 -120.297805 50 32951ft 478kts
17-Mar-18 18:24 39.248464 -120.159456 50 32898ft 478kts
17-Mar-18 18:25 39.326968 -120.020367 50 32892ft 478kts
17-Mar-18 18:26 39.405661 -119.880993 51 32978ft 483kts
17-Mar-18 18:27 39.484422 -119.739716 51 33028ft 482kts
17-Mar-18 18:28 39.572876 -119.611283 36 33029ft 479kts
17-Mar-18 18:29 39.676812 -119.504573 35 33024ft 476kts
17-Mar-18 18:30 39.780753 -119.396833 35 33019ft 477kts
17-Mar-18 18:31 39.884701 -119.289350 35 33015ft 478kts
17-Mar-18 18:32 39.988679 -119.180914 36 33011ft 480kts
17-Mar-18 18:33 40.092812 -119.071687 36 33006ft 478kts
17-Mar-18 18:34 40.196528 -118.962422 36 33003ft 480kts
17-Mar-18 18:35 40.300926 -118.851983 36 33002ft 482kts
17-Mar-18 18:36 40.405194 -118.741227 36 33000ft 483kts
17-Mar-18 18:37 40.509570 -118.629898 37 32997ft 484kts
17-Mar-18 18:38 40.614221 -118.517819 37 32994ft 484kts
17-Mar-18 18:39 40.718514 -118.405652 37 32994ft 485kts
17-Mar-18 18:40 40.823072 -118.292729 37 32993ft 484kts
17-Mar-18 18:41 40.926939 -118.180079 37 32989ft 483kts
17-Mar-18 18:42 41.030554 -118.067231 37 32988ft 482kts
17-Mar-18 18:43 41.134329 -117.953741 38 32987ft 486kts
17-Mar-18 18:44 41.238816 -117.838968 38 32985ft 487kts
17-Mar-18 18:45 41.342787 -117.724277 38 32983ft 485kts
17-Mar-18 18:46 41.446816 -117.609029 38 32980ft 485kts
17-Mar-18 18:47 41.550283 -117.493912 39 32974ft 485kts
17-Mar-18 18:48 41.654007 -117.378005 39 32969ft 485kts
17-Mar-18 18:49 41.757508 -117.261842 39 32962ft 486kts
17-Mar-18 18:50 41.861081 -117.145099 39 32956ft 488kts
17-Mar-18 18:51 41.965287 -117.027120 39 32952ft 490kts
17-Mar-18 18:52 42.069015 -116.909161 39 32949ft 486kts
17-Mar-18 18:53 42.172244 -116.791248 40 32945ft 488kts
17-Mar-18 18:54 42.276135 -116.672049 40 32942ft 490kts
17-Mar-18 18:55 42.379784 -116.552595 40 32948ft 491kts
17-Mar-18 18:56 42.483806 -116.432167 40 32944ft 491kts
17-Mar-18 18:57 42.587539 -116.311528 40 32940ft 491kts
17-Mar-18 18:58 42.690926 -116.190743 40 32930ft 490kts
17-Mar-18 18:59 42.794410 -116.069298 40 32935ft 489kts
17-Mar-18 19:00 42.897258 -115.948036 41 32931ft 492kts
17-Mar-18 19:01 43.001038 -115.825115 41 32930ft 492kts
17-Mar-18 19:02 43.103993 -115.702604 41 32930ft 491kts
17-Mar-18 19:03 43.206609 -115.579927 41 32931ft 490kts
17-Mar-18 19:04 43.309346 -115.456539 41 32933ft 489kts
17-Mar-18 19:05 43.411423 -115.333371 41 32929ft 489kts
17-Mar-18 19:06 43.513463 -115.209661 41 32923ft 490kts
17-Mar-18 19:07 43.615874 -115.084924 41 32909ft 490kts
17-Mar-18 19:08 43.717884 -114.960085 42 32896ft 491kts
17-Mar-18 19:09 43.820271 -114.834188 42 32887ft 492kts
17-Mar-18 19:10 43.922438 -114.707958 42 32878ft 493kts
17-Mar-18 19:11 44.024631 -114.581095 42 32876ft 492kts
17-Mar-18 19:12 44.126361 -114.454188 42 32871ft 490kts
17-Mar-18 19:13 44.227880 -114.326935 42 32863ft 492kts
17-Mar-18 19:14 44.329389 -114.199075 42 32853ft 492kts
17-Mar-18 19:15 44.431087 -114.070352 42 32850ft 492kts
17-Mar-18 19:16 44.532213 -113.941726 43 32850ft 493kts
17-Mar-18 19:17 44.633522 -113.812229 43 32846ft 493kts
17-Mar-18 19:18 44.734868 -113.682046 43 32844ft 492kts
17-Mar-18 19:19 44.835665 -113.551924 43 32841ft 492kts
17-Mar-18 19:20 44.936587 -113.420989 43 32838ft 491kts
17-Mar-18 19:21 45.036864 -113.290243 44 32833ft 491kts
17-Mar-18 19:22 45.137401 -113.158497 44 32823ft 491kts
17-Mar-18 19:23 45.237352 -113.026862 44 32814ft 491kts
17-Mar-18 19:24 45.337257 -112.894620 44 32805ft 491kts
17-Mar-18 19:25 45.437365 -112.761436 45 32803ft 492kts
17-Mar-18 19:26 45.537031 -112.628167 45 32803ft 491kts
17-Mar-18 19:27 45.636520 -112.494447 45 32814ft 492kts
17-Mar-18 19:28 45.736143 -112.359860 45 32817ft 491kts
17-Mar-18 19:29 45.835403 -112.225727 45 32816ft 491kts
17-Mar-18 19:30 45.934339 -112.090211 46 32820ft 490kts
17-Mar-18 19:31 46.038059 -111.963425 35 32829ft 492kts
17-Mar-18 19:32 46.154342 -111.858574 33 32837ft 494kts
17-Mar-18 19:33 46.270701 -111.752138 34 32843ft 494kts
17-Mar-18 19:34 46.386829 -111.646153 33 32849ft 494kts
17-Mar-18 19:35 46.502677 -111.539314 33 32848ft 494kts
17-Mar-18 19:36 46.618785 -111.431485 34 32855ft 494kts
17-Mar-18 19:37 46.734598 -111.323339 33 32872ft 495kts
17-Mar-18 19:38 46.850799 -111.214266 33 32883ft 495kts
17-Mar-18 19:39 46.966492 -111.105098 33 32885ft 495kts
17-Mar-18 19:40 47.062803 -111.013790 34 32897ft 495kts
17-Mar-18 19:41 47.197912 -110.885014 34 32908ft 495kts
17-Mar-18 19:42 47.293868 -110.793077 34 32911ft 494kts
17-Mar-18 19:43 47.408900 -110.682323 34 32912ft 494kts
17-Mar-18 19:44 47.543068 -110.552404 34 32916ft 493kts
17-Mar-18 19:45 47.638450 -110.459548 34 32917ft 492kts
17-Mar-18 19:46 47.752694 -110.347789 34 32918ft 492kts
17-Mar-18 19:47 47.867185 -110.235185 34 32923ft 491kts
17-Mar-18 19:48 47.980964 -110.122681 34 32929ft 491kts
17-Mar-18 19:49 48.095068 -110.009246 34 32936ft 491kts
17-Mar-18 19:50 48.208653 -109.895714 34 32942ft 491kts
17-Mar-18 19:51 48.322181 -109.781624 34 32946ft 491kts
17-Mar-18 19:52 48.435970 -109.666642 34 32949ft 492kts
17-Mar-18 19:53 48.549351 -109.551443 34 32949ft 492kts
17-Mar-18 19:54 48.662515 -109.435828 34 32949ft 491kts
17-Mar-18 19:55 48.775906 -109.319346 34 32951ft 491kts
17-Mar-18 19:56 48.888879 -109.202649 34 32952ft 492kts
17-Mar-18 19:57 49.002150 -109.084982 35 32953ft 492kts
17-Mar-18 19:58 49.114939 -108.967160 35 32953ft 492kts
17-Mar-18 19:59 49.227576 -108.848839 35 32957ft 492kts
17-Mar-18 20:00 49.340557 -108.729476 35 32957ft 492kts
17-Mar-18 20:01 49.453058 -108.609951 35 32953ft 492kts
17-Mar-18 20:02 49.565468 -108.489842 35 32951ft 492kts
17-Mar-18 20:03 49.678164 -108.368733 35 32948ft 493kts
17-Mar-18 20:04 49.790330 -108.247480 35 32945ft 492kts
17-Mar-18 20:05 49.902657 -108.125389 35 32944ft 493kts
17-Mar-18 20:06 50.014643 -108.002940 35 32942ft 493kts
17-Mar-18 20:07 50.126653 -107.880327 36 32940ft 493kts
17-Mar-18 20:08 50.238549 -107.756084 36 32941ft 492kts
17-Mar-18 20:09 50.343457 -107.620774 46 32940ft 488kts
17-Mar-18 20:10 50.437782 -107.468029 47 32943ft 485kts
17-Mar-18 20:11 50.531774 -107.316797 47 32949ft 483kts
17-Mar-18 20:12 50.626148 -107.167026 47 32958ft 481kts
17-Mar-18 20:13 50.719899 -107.016154 48 32967ft 479kts
17-Mar-18 20:14 50.812706 -106.865621 48 32976ft 478kts
17-Mar-18 20:15 50.905031 -106.714921 48 32982ft 477kts
17-Mar-18 20:16 50.997247 -106.563481 49 32992ft 475kts
17-Mar-18 20:17 51.088614 -106.412514 49 32997ft 473kts
17-Mar-18 20:18 51.179670 -106.261146 49 32999ft 471kts
17-Mar-18 20:19 51.269744 -106.110500 50 33006ft 468kts
17-Mar-18 20:20 51.359114 -105.960118 50 33007ft 466kts
17-Mar-18 20:21 51.448354 -105.809042 50 33008ft 465kts
17-Mar-18 20:22 51.536889 -105.658251 50 33009ft 464kts
17-Mar-18 20:23 51.625471 -105.506450 50 33009ft 464kts
17-Mar-18 20:24 51.713930 -105.354892 51 33010ft 465kts
17-Mar-18 20:25 51.801817 -105.201704 51 33011ft 466kts
17-Mar-18 20:26 51.890228 -105.047047 51 33017ft 468kts
17-Mar-18 20:27 51.978117 -104.891662 51 33018ft 468kts
17-Mar-18 20:28 52.065423 -104.736098 51 33019ft 463kts
17-Mar-18 20:29 52.153302 -104.581103 50 33014ft 466kts
17-Mar-18 20:30 52.240708 -104.425203 51 33015ft 466kts
17-Mar-18 20:31 52.328109 -104.267781 51 33016ft 467kts
17-Mar-18 20:32 52.415052 -104.110110 51 33018ft 467kts
17-Mar-18 20:33 52.501778 -103.951805 51 33019ft 467kts
17-Mar-18 20:34 52.588789 -103.791968 51 33021ft 468kts
17-Mar-18 20:35 52.675295 -103.632030 50 33022ft 468kts
17-Mar-18 20:36 52.761442 -103.471720 50 33024ft 468kts
17-Mar-18 20:37 52.847861 -103.309859 50 33025ft 468kts
17-Mar-18 20:38 52.933780 -103.147885 50 33025ft 469kts
17-Mar-18 20:39 53.019269 -102.985666 50 33026ft 464kts
17-Mar-18 20:40 53.104085 -102.823668 50 33026ft 465kts
17-Mar-18 20:41 53.188811 -102.660771 50 33028ft 466kts
17-Mar-18 20:42 53.273687 -102.496508 50 33031ft 466kts
17-Mar-18 20:43 53.358145 -102.331967 50 33042ft 467kts
17-Mar-18 20:44 53.442674 -102.166189 50 33045ft 467kts
17-Mar-18 20:45 53.526718 -102.000255 49 33046ft 467kts
17-Mar-18 20:46 53.610634 -101.833454 49 33048ft 468kts
17-Mar-18 20:47 53.694672 -101.665282 49 33049ft 468kts
17-Mar-18 20:48 53.778337 -101.497210 49 33049ft 468kts
17-Mar-18 20:49 53.861867 -101.328247 50 33050ft 469kts
17-Mar-18 20:50 53.945169 -101.157251 50 33051ft 470kts
17-Mar-18 20:51 54.025996 -100.982804 52 33050ft 471kts
17-Mar-18 20:52 54.104823 -100.804313 51 33051ft 470kts
17-Mar-18 20:53 54.183343 -100.625779 50 33056ft 471kts
17-Mar-18 20:54 54.262985 -100.447994 50 33063ft 472kts
17-Mar-18 20:55 54.342059 -100.267985 51 33071ft 472kts
17-Mar-18 20:56 54.420504 -100.087624 51 33080ft 472kts
17-Mar-18 20:57 54.498715 -99.906402 51 33091ft 473kts
17-Mar-18 20:58 54.576906 -99.723880 51 33101ft 472kts
17-Mar-18 20:59 54.654556 -99.541301 50 33110ft 472kts
17-Mar-18 21:00 54.731914 -99.358054 50 33119ft 472kts
17-Mar-18 21:01 54.809247 -99.173500 50 33128ft 472kts
17-Mar-18 21:02 54.886058 -98.988824 50 33139ft 472kts
17-Mar-18 21:03 54.962618 -98.803371 50 33149ft 472kts
17-Mar-18 21:04 55.039138 -98.616615 49 33161ft 473kts
17-Mar-18 21:05 55.115156 -98.429668 49 33174ft 472kts
17-Mar-18 21:06 55.190822 -98.242178 49 33187ft 472kts
17-Mar-18 21:07 55.266457 -98.053329 49 33199ft 472kts
17-Mar-18 21:08 55.341455 -97.864615 49 33210ft 472kts
17-Mar-18 21:09 55.416182 -97.675159 49 33217ft 472kts
17-Mar-18 21:10 55.490877 -97.484302 49 33219ft 472kts
17-Mar-18 21:11 55.564949 -97.293574 49 33221ft 472kts
17-Mar-18 21:12 55.639037 -97.101292 49 33583ft 471kts
17-Mar-18 21:13 55.712365 -96.909508 49 35086ft 471kts
17-Mar-18 21:14 55.785325 -96.717168 49 36423ft 469kts
17-Mar-18 21:15 55.858189 -96.523562 50 37227ft 470kts
17-Mar-18 21:16 55.930401 -96.330160 50 37253ft 469kts
17-Mar-18 21:17 56.002267 -96.136150 50 37268ft 469kts
17-Mar-18 21:18 56.074134 -95.940589 50 37270ft 469kts
17-Mar-18 21:19 56.145456 -95.744943 50 37304ft 469kts
17-Mar-18 21:20 56.216729 -95.547845 50 37320ft 469kts
17-Mar-18 21:21 56.287429 -95.350733 50 37327ft 469kts
17-Mar-18 21:22 56.357809 -95.152916 51 37332ft 469kts
17-Mar-18 21:23 56.428106 -94.953698 51 37340ft 469kts
17-Mar-18 21:24 56.497867 -94.754371 51 37341ft 469kts
17-Mar-18 21:25 56.567256 -94.554455 51 37339ft 469kts
17-Mar-18 21:26 56.636596 -94.353015 51 37338ft 470kts
17-Mar-18 21:27 56.705350 -94.151592 52 37347ft 469kts
17-Mar-18 21:28 56.773765 -93.949477 52 37341ft 469kts
17-Mar-18 21:29 56.842033 -93.746083 52 37351ft 468kts
17-Mar-18 21:30 56.909735 -93.542645 52 37349ft 469kts
17-Mar-18 21:31 56.977092 -93.338520 52 37359ft 469kts
17-Mar-18 21:32 57.044121 -93.133646 53 37364ft 468kts
17-Mar-18 21:33 57.111030 -92.927355 53 37364ft 469kts
17-Mar-18 21:34 57.177357 -92.721093 53 37375ft 468kts
17-Mar-18 21:35 57.243366 -92.514001 53 37374ft 468kts
17-Mar-18 21:36 57.309228 -92.305553 54 37378ft 469kts
17-Mar-18 21:37 57.374532 -92.097032 54 37389ft 469kts
17-Mar-18 21:38 57.439520 -91.887701 54 37384ft 468kts
17-Mar-18 21:39 57.504268 -91.677257 54 37385ft 468kts
17-Mar-18 21:40 57.568512 -91.466568 54 37387ft 468kts
17-Mar-18 21:41 57.632417 -91.255118 55 37381ft 468kts
17-Mar-18 21:42 57.696098 -91.042450 55 37379ft 468kts
17-Mar-18 21:43 57.759229 -90.829706 55 37368ft 468kts
17-Mar-18 21:44 57.821967 -90.616344 55 37367ft 468kts
17-Mar-18 21:45 57.885109 -90.402308 56 37363ft 467kts
17-Mar-18 21:46 57.946695 -90.187301 56 37357ft 467kts
17-Mar-18 21:47 58.008694 -89.971459 54 37330ft 466kts
17-Mar-18 21:48 58.076497 -89.763342 53 37327ft 465kts
17-Mar-18 21:49 58.143588 -89.554316 54 37325ft 465kts
17-Mar-18 21:50 58.211238 -89.344753 53 37323ft 465kts
17-Mar-18 21:51 58.278597 -89.135610 54 37318ft 465kts
17-Mar-18 21:52 58.345079 -88.925156 54 37315ft 465kts
17-Mar-18 21:53 58.411355 -88.713090 55 37314ft 464kts
17-Mar-18 21:54 58.477035 -88.500962 55 37310ft 465kts
17-Mar-18 21:55 58.531547 -88.323411 55 37296ft 465kts
17-Mar-18 21:56 58.607604 -88.073415 55 37270ft 464kts
17-Mar-18 21:57 58.661491 -87.894660 56 37272ft 465kts
17-Mar-18 21:58 58.736489 -87.643550 56 37268ft 464kts
17-Mar-18 21:59 58.800561 -87.426844 56 37263ft 464kts
17-Mar-18 22:00 58.864038 -87.210137 56 37263ft 464kts
17-Mar-18 22:01 58.916635 -87.029002 57 37264ft 464kts
17-Mar-18 22:02 58.979609 -86.810258 57 37263ft 464kts
17-Mar-18 22:03 59.052339 -86.555005 58 37263ft 463kts
17-Mar-18 22:04 59.104159 -86.371385 58 37263ft 463kts
17-Mar-18 22:05 59.165733 -86.151269 58 37262ft 463kts
17-Mar-18 22:06 59.226901 -85.930479 59 37262ft 463kts
17-Mar-18 22:07 59.287802 -85.708501 59 37232ft 462kts
17-Mar-18 22:08 59.348072 -85.486652 59 37227ft 462kts
17-Mar-18 22:09 59.407948 -85.264087 59 37228ft 462kts
17-Mar-18 22:10 59.467679 -85.039852 59 37207ft 462kts
17-Mar-18 22:11 59.526751 -84.815858 60 37081ft 460kts
17-Mar-18 22:12 59.585501 -84.590840 60 37040ft 460kts
17-Mar-18 22:13 59.643610 -84.366036 60 37028ft 460kts
17-Mar-18 22:14 59.701264 -84.140722 61 37023ft 459kts
17-Mar-18 22:15 59.758710 -83.913918 61 37018ft 459kts
17-Mar-18 22:16 59.815554 -83.687173 61 37013ft 459kts
17-Mar-18 22:17 59.872020 -83.459615 61 37008ft 459kts
17-Mar-18 22:18 59.928322 -83.230339 61 36941ft 460kts
17-Mar-18 22:19 59.984026 -83.001105 62 36935ft 459kts
17-Mar-18 22:20 60.039505 -82.770399 62 36931ft 459kts
17-Mar-18 22:21 60.094328 -82.539957 63 36928ft 459kts
17-Mar-18 22:22 60.148749 -82.308764 63 36924ft 459kts
17-Mar-18 22:23 60.202927 -82.076104 63 36920ft 459kts
17-Mar-18 22:24 60.256517 -81.843460 63 36919ft 458kts
17-Mar-18 22:25 60.309675 -81.610176 64 36916ft 458kts
17-Mar-18 22:26 60.362620 -81.375261 64 36913ft 459kts
17-Mar-18 22:27 60.414979 -81.140341 65 36910ft 459kts
17-Mar-18 22:28 60.467165 -80.903574 65 36908ft 459kts
17-Mar-18 22:29 60.518736 -80.666948 65 36905ft 459kts
17-Mar-18 22:30 60.570595 -80.430308 66 36904ft 459kts
17-Mar-18 22:31 60.621089 -80.190596 66 36888ft 460kts
17-Mar-18 22:32 60.671604 -79.951547 65 36871ft 459kts
17-Mar-18 22:33 60.724491 -79.714504 65 36867ft 459kts
17-Mar-18 22:34 60.776696 -79.475542 65 36863ft 459kts
17-Mar-18 22:35 60.829449 -79.237675 65 36860ft 459kts
17-Mar-18 22:36 60.882132 -78.999367 65 36856ft 459kts
17-Mar-18 22:37 60.933941 -78.758890 66 36855ft 459kts
17-Mar-18 22:38 60.985048 -78.518290 66 36854ft 459kts
17-Mar-18 22:39 61.035874 -78.276117 66 36854ft 459kts
17-Mar-18 22:40 61.086095 -78.033958 67 36848ft 459kts
17-Mar-18 22:41 61.135904 -77.790926 67 36821ft 459kts
17-Mar-18 22:42 61.185437 -77.546322 67 36820ft 459kts
17-Mar-18 22:43 61.234373 -77.301728 67 36819ft 459kts
17-Mar-18 22:44 61.283031 -77.055539 68 36824ft 460kts
17-Mar-18 22:45 61.331014 -76.809773 68 36820ft 458kts
17-Mar-18 22:46 61.378520 -76.563422 68 36816ft 459kts
17-Mar-18 22:47 61.425758 -76.315376 68 36811ft 459kts
17-Mar-18 22:48 61.472351 -76.067608 69 36806ft 458kts
17-Mar-18 22:49 61.518661 -75.818202 69 36800ft 458kts
17-Mar-18 22:50 61.564296 -75.569244 69 36774ft 458kts
17-Mar-18 22:51 61.609458 -75.319668 69 36769ft 458kts
17-Mar-18 22:52 61.654339 -75.068377 69 36762ft 458kts
17-Mar-18 22:53 61.698624 -74.817131 70 36759ft 458kts
17-Mar-18 22:54 61.742451 -74.565138 70 36755ft 458kts
17-Mar-18 22:55 61.785967 -74.311554 70 36749ft 458kts
17-Mar-18 22:56 61.828866 -74.058108 71 36741ft 458kts
17-Mar-18 22:57 61.871440 -73.803107 71 36733ft 458kts
17-Mar-18 22:58 61.913396 -73.548287 71 36723ft 458kts
17-Mar-18 22:59 61.954850 -73.292964 71 36710ft 457kts
17-Mar-18 23:00 61.995919 -73.036385 72 36705ft 457kts
17-Mar-18 23:01 62.036381 -72.779950 72 36699ft 457kts
17-Mar-18 23:02 62.076317 -72.523139 72 36694ft 456kts
17-Mar-18 23:03 62.115854 -72.265142 72 36693ft 456kts
17-Mar-18 23:04 62.154808 -72.007199 73 36692ft 456kts
17-Mar-18 23:05 62.193388 -71.747830 73 36687ft 456kts
17-Mar-18 23:06 62.231358 -71.488669 73 36689ft 456kts
17-Mar-18 23:07 62.268795 -71.229194 73 36695ft 455kts
17-Mar-18 23:08 62.305854 -70.968316 74 36701ft 455kts
17-Mar-18 23:09 62.342249 -70.708049 74 36705ft 455kts
17-Mar-18 23:10 62.378160 -70.447179 74 36709ft 455kts
17-Mar-18 23:11 62.413694 -70.184787 74 36710ft 455kts
17-Mar-18 23:12 62.448606 -69.922761 74 36717ft 455kts
17-Mar-18 23:13 62.483027 -69.660121 75 36724ft 455kts
17-Mar-18 23:14 62.517023 -69.396341 75 36750ft 454kts
17-Mar-18 23:15 62.550381 -69.133080 75 36757ft 454kts
17-Mar-18 23:16 62.583309 -68.868708 76 36749ft 453kts
17-Mar-18 23:17 62.615599 -68.604885 76 36753ft 453kts
17-Mar-18 23:18 62.647366 -68.340729 76 36748ft 452kts
17-Mar-18 23:19 62.678691 -68.075521 76 36753ft 452kts
17-Mar-18 23:20 62.709444 -67.810391 76 36752ft 452kts
17-Mar-18 23:21 62.740587 -67.545533 77 36751ft 451kts
17-Mar-18 23:22 62.769913 -67.278516 78 36748ft 451kts
17-Mar-18 23:23 62.798628 -67.012096 79 36744ft 451kts
17-Mar-18 23:24 62.816412 -66.741311 84 36741ft 450kts
17-Mar-18 23:25 62.831943 -66.469117 84 36737ft 450kts
17-Mar-18 23:26 62.847628 -66.197708 82 36732ft 450kts
17-Mar-18 23:27 62.864812 -65.925658 83 36729ft 450kts
17-Mar-18 23:28 62.880124 -65.654483 84 36728ft 449kts
17-Mar-18 23:29 62.894736 -65.383059 84 36728ft 449kts
17-Mar-18 23:30 62.908843 -65.110579 84 36726ft 449kts
17-Mar-18 23:31 62.922374 -64.838805 84 36729ft 448kts
17-Mar-18 23:32 62.935379 -64.566845 85 36729ft 448kts
17-Mar-18 23:33 62.947903 -64.293757 85 36731ft 448kts
17-Mar-18 23:34 62.959860 -64.021386 85 36732ft 448kts
17-Mar-18 23:35 62.971332 -63.747867 85 36732ft 448kts
17-Mar-18 23:36 62.983161 -63.475261 86 36731ft 448kts
17-Mar-18 23:37 62.992904 -63.202066 86 36724ft 448kts
17-Mar-18 23:38 63.007005 -62.929433 79 36720ft 448kts
17-Mar-18 23:39 63.036522 -62.662387 78 36715ft 450kts
17-Mar-18 23:40 63.065081 -62.393899 78 36714ft 450kts
17-Mar-18 23:41 63.094432 -62.124958 77 36710ft 449kts
17-Mar-18 23:42 63.123454 -61.856773 78 36706ft 450kts
17-Mar-18 23:43 63.151259 -61.587275 78 36703ft 450kts
17-Mar-18 23:44 63.178524 -61.316429 79 36698ft 450kts
17-Mar-18 23:45 63.205166 -61.045975 79 36689ft 450kts
17-Mar-18 23:46 63.231362 -60.774299 79 36689ft 449kts
17-Mar-18 23:47 63.256948 -60.503105 79 36687ft 449kts
17-Mar-18 23:48 63.281955 -60.232120 79 36686ft 448kts
17-Mar-18 23:49 63.306518 -59.959857 80 36683ft 448kts
17-Mar-18 23:50 63.330515 -59.687645 80 36681ft 449kts
17-Mar-18 23:51 63.354011 -59.414838 80 36678ft 449kts
17-Mar-18 23:52 63.377052 -59.140790 80 36674ft 449kts
17-Mar-18 23:53 63.399487 -58.867301 80 36670ft 449kts
17-Mar-18 23:54 63.422382 -58.592917 80 36665ft 449kts
17-Mar-18 23:55 63.443380 -58.318580 81 36697ft 448kts
17-Mar-18 23:56 63.463706 -58.043412 83 36692ft 449kts
17-Mar-18 23:57 63.460420 -57.764634 95 36688ft 448kts
17-Mar-18 23:58 63.449653 -57.487780 95 36629ft 447kts
17-Mar-18 23:59 63.439017 -57.211634 94 36623ft 446kts
18-Mar-18 00:00 63.430786 -56.934097 94 36617ft 447kts
18-Mar-18 00:01 63.420604 -56.657811 95 36612ft 447kts
18-Mar-18 00:02 63.409576 -56.381520 95 36607ft 448kts
18-Mar-18 00:03 63.397906 -56.104097 95 36602ft 448kts
18-Mar-18 00:04 63.385745 -55.828108 96 36597ft 447kts
18-Mar-18 00:05 63.373031 -55.551959 96 36594ft 447kts
18-Mar-18 00:06 63.359826 -55.276954 96 36591ft 447kts
18-Mar-18 00:07 63.346100 -55.002289 97 36589ft 446kts
18-Mar-18 00:08 63.331827 -54.727548 97 36586ft 445kts
18-Mar-18 00:09 63.317089 -54.454230 97 36583ft 445kts
18-Mar-18 00:10 63.301831 -54.181235 97 36581ft 445kts
18-Mar-18 00:11 63.288663 -53.953104 97 36582ft 445kts
18-Mar-18 00:12 63.269750 -53.636112 98 36578ft 444kts
18-Mar-18 00:13 63.252881 -53.363240 98 36577ft 445kts
18-Mar-18 00:14 63.238473 -53.136843 98 36577ft 445kts
18-Mar-18 00:15 63.217701 -52.820302 98 36576ft 445kts
18-Mar-18 00:16 63.202373 -52.593629 98 36574ft 445kts
18-Mar-18 00:17 63.183582 -52.322982 99 36575ft 445kts
18-Mar-18 00:18 63.164283 -52.052766 99 36575ft 445kts
18-Mar-18 00:19 63.141052 -51.737070 99 36573ft 445kts
18-Mar-18 00:20 63.120621 -51.467392 99 36577ft 446kts
18-Mar-18 00:21 63.103171 -51.242500 99 36576ft 446kts
18-Mar-18 00:22 63.081683 -50.971973 100 36576ft 447kts
18-Mar-18 00:23 63.059740 -50.702294 99 36574ft 447kts
18-Mar-18 00:24 63.038032 -50.432376 100 36573ft 448kts
18-Mar-18 00:25 63.014342 -50.162620 100 36572ft 448kts
18-Mar-18 00:26 62.992415 -49.892957 98 36570ft 448kts
18-Mar-18 00:27 62.974926 -49.620760 98 36567ft 449kts
18-Mar-18 00:28 62.956162 -49.349392 98 36565ft 449kts
18-Mar-18 00:29 62.938731 -49.077665 97 36563ft 450kts
18-Mar-18 00:30 62.920562 -48.804732 98 36559ft 451kts
18-Mar-18 00:31 62.901273 -48.533397 99 36556ft 451kts
18-Mar-18 00:32 62.881337 -48.262269 99 36553ft 452kts
18-Mar-18 00:33 62.860743 -47.990016 99 36549ft 452kts
18-Mar-18 00:34 62.839685 -47.718947 100 36546ft 452kts
18-Mar-18 00:35 62.818140 -47.448692 100 36541ft 451kts
18-Mar-18 00:36 62.796005 -47.177994 100 36538ft 452kts
18-Mar-18 00:37 62.773369 -46.907904 100 36534ft 452kts
18-Mar-18 00:38 62.750137 -46.637302 101 36530ft 453kts
18-Mar-18 00:39 62.726452 -46.367887 101 36527ft 453kts
18-Mar-18 00:40 62.702235 -46.098716 101 36524ft 453kts
18-Mar-18 00:41 62.677407 -45.828972 101 36521ft 453kts
18-Mar-18 00:42 62.652177 -45.560870 102 36519ft 452kts
18-Mar-18 00:43 62.626485 -45.293741 102 36525ft 452kts
18-Mar-18 00:44 62.600210 -45.026329 102 36524ft 451kts
18-Mar-18 00:45 62.573554 -44.760659 103 36524ft 450kts
18-Mar-18 00:46 62.546354 -44.495063 103 36525ft 450kts
18-Mar-18 00:47 62.518738 -44.230772 103 36527ft 450kts
18-Mar-18 00:48 62.490624 -43.966976 103 36529ft 450kts
18-Mar-18 00:49 62.461864 -43.702317 103 36534ft 451kts
18-Mar-18 00:50 62.432722 -43.439228 104 36538ft 451kts
18-Mar-18 00:51 62.403060 -43.176432 104 36543ft 451kts
18-Mar-18 00:52 62.372787 -42.913151 104 36549ft 452kts
18-Mar-18 00:53 62.342061 -42.650770 104 36555ft 453kts
18-Mar-18 00:54 62.310751 -42.388183 105 36563ft 454kts
18-Mar-18 00:55 62.278821 -42.125076 105 36570ft 454kts
18-Mar-18 00:56 62.246488 -41.863296 105 36578ft 454kts
18-Mar-18 00:57 62.213658 -41.602034 105 36587ft 454kts
18-Mar-18 00:58 62.180238 -41.340559 106 36596ft 454kts
18-Mar-18 00:59 62.146446 -41.080563 106 36602ft 454kts
18-Mar-18 01:00 62.112041 -40.820186 106 36611ft 454kts
18-Mar-18 01:01 62.077963 -40.560240 106 36621ft 456kts
18-Mar-18 01:02 62.042333 -40.301348 107 36629ft 455kts
18-Mar-18 01:03 62.005922 -40.042143 107 36638ft 456kts
18-Mar-18 01:04 61.966825 -39.785936 109 36671ft 456kts
18-Mar-18 01:05 61.926195 -39.531224 109 36679ft 456kts
18-Mar-18 01:06 61.885054 -39.275943 108 36688ft 456kts
18-Mar-18 01:07 61.845835 -39.020165 109 36696ft 457kts
18-Mar-18 01:08 61.804734 -38.764860 110 36704ft 457kts
18-Mar-18 01:09 61.763061 -38.511256 110 36711ft 457kts
18-Mar-18 01:10 61.720889 -38.258444 110 36718ft 457kts
18-Mar-18 01:11 61.678129 -38.005649 111 36724ft 457kts
18-Mar-18 01:12 61.635035 -37.754316 111 36731ft 457kts
18-Mar-18 01:13 61.591430 -37.503426 111 36737ft 458kts
18-Mar-18 01:14 61.547167 -37.252061 111 36741ft 458kts
18-Mar-18 01:15 61.502513 -37.001845 112 36754ft 459kts
18-Mar-18 01:16 61.457380 -36.752191 112 36759ft 459kts
18-Mar-18 01:17 61.411673 -36.502641 112 36893ft 459kts
18-Mar-18 01:18 61.365571 -36.254150 112 36931ft 460kts
18-Mar-18 01:19 61.318894 -36.005742 112 36929ft 459kts
18-Mar-18 01:20 61.271880 -35.758671 113 36927ft 460kts
18-Mar-18 01:21 61.224368 -35.512086 113 36924ft 460kts
18-Mar-18 01:22 61.176205 -35.265211 113 36922ft 461kts
18-Mar-18 01:23 61.127753 -35.019896 113 36921ft 461kts
18-Mar-18 01:24 61.078821 -34.775150 114 36918ft 461kts
18-Mar-18 01:25 61.029259 -34.530226 114 36916ft 461kts
18-Mar-18 01:26 60.979402 -34.286754 114 36914ft 462kts
18-Mar-18 01:27 60.929068 -34.043903 114 36911ft 462kts
18-Mar-18 01:28 60.878095 -33.800844 115 36909ft 462kts
18-Mar-18 01:29 60.826799 -33.559102 115 36907ft 463kts
18-Mar-18 01:30 60.774893 -33.317308 115 36904ft 463kts
18-Mar-18 01:31 60.722727 -33.077084 115 36902ft 463kts
18-Mar-18 01:32 60.670132 -32.837668 116 36900ft 463kts
18-Mar-18 01:33 60.616919 -32.598145 116 36900ft 463kts
18-Mar-18 01:34 60.563397 -32.359939 116 36895ft 463kts
18-Mar-18 01:35 60.509421 -32.122381 116 36893ft 464kts
18-Mar-18 01:36 60.454798 -31.884642 117 36891ft 464kts
18-Mar-18 01:37 60.399921 -31.648402 117 36888ft 464kts
18-Mar-18 01:38 60.344659 -31.413123 117 36887ft 464kts
18-Mar-18 01:39 60.288858 -31.178091 117 36885ft 463kts
18-Mar-18 01:40 60.232910 -30.944963 117 36942ft 462kts
18-Mar-18 01:41 60.176372 -30.711873 118 37040ft 463kts
18-Mar-18 01:42 60.120229 -30.479604 117 37042ft 463kts
18-Mar-18 01:43 60.062791 -30.249102 118 37042ft 463kts
18-Mar-18 01:44 60.004964 -30.018357 116 37043ft 464kts
18-Mar-18 01:45 59.964223 -29.773753 108 37045ft 466kts
18-Mar-18 01:46 59.925692 -29.527032 109 37047ft 466kts
18-Mar-18 01:47 59.886615 -29.279945 108 37048ft 467kts
18-Mar-18 01:48 59.848644 -29.033178 109 37040ft 467kts
18-Mar-18 01:49 59.809233 -28.787892 109 37083ft 466kts
18-Mar-18 01:50 59.769105 -28.542770 110 37084ft 465kts
18-Mar-18 01:51 59.728729 -28.299638 110 37085ft 464kts
18-Mar-18 01:52 59.687822 -28.056665 110 37085ft 464kts
18-Mar-18 01:53 59.646647 -27.815336 110 37086ft 463kts
18-Mar-18 01:54 59.605033 -27.574627 111 37086ft 464kts
18-Mar-18 01:55 59.562808 -27.333529 111 37087ft 464kts
18-Mar-18 01:56 59.520284 -27.093850 111 37087ft 464kts
18-Mar-18 01:57 59.477340 -26.854873 111 37088ft 463kts
18-Mar-18 01:58 59.433874 -26.616028 111 37088ft 462kts
18-Mar-18 01:59 59.390173 -26.378886 112 37088ft 462kts
18-Mar-18 02:00 59.346081 -26.142556 112 37089ft 462kts
18-Mar-18 02:01 59.301466 -25.906331 112 37088ft 461kts
18-Mar-18 02:02 59.256644 -25.671849 112 37094ft 461kts
18-Mar-18 02:03 59.211374 -25.437883 112 37095ft 461kts
18-Mar-18 02:04 59.165534 -25.203737 112 37094ft 461kts
18-Mar-18 02:05 59.119432 -24.971035 113 37094ft 461kts
18-Mar-18 02:06 59.072793 -24.738354 113 37094ft 460kts
18-Mar-18 02:07 59.025921 -24.507204 113 37093ft 460kts
18-Mar-18 02:08 58.978655 -24.276754 113 37094ft 460kts
18-Mar-18 02:09 58.930825 -24.046225 113 37093ft 460kts
18-Mar-18 02:10 58.882817 -23.817385 113 37093ft 459kts
18-Mar-18 02:11 58.834490 -23.589595 113 37092ft 459kts
18-Mar-18 02:12 58.785608 -23.361717 113 37020ft 458kts
18-Mar-18 02:13 58.736562 -23.135570 114 37020ft 458kts
18-Mar-18 02:14 58.687172 -22.910283 114 37019ft 457kts
18-Mar-18 02:15 58.637308 -22.685276 114 37019ft 456kts
18-Mar-18 02:16 58.587305 -22.462040 114 37081ft 456kts
18-Mar-18 02:17 58.536703 -22.238498 114 37090ft 456kts
18-Mar-18 02:18 58.485936 -22.016569 114 37090ft 456kts
18-Mar-18 02:19 58.434848 -21.795544 114 37089ft 455kts
18-Mar-18 02:20 58.383280 -21.574725 115 37090ft 455kts
18-Mar-18 02:21 58.331545 -21.355445 115 37089ft 454kts
18-Mar-18 02:22 58.279560 -21.137340 115 37088ft 453kts
18-Mar-18 02:23 58.227152 -20.919633 115 37089ft 452kts
18-Mar-18 02:24 58.174722 -20.703971 116 37098ft 450kts
18-Mar-18 02:25 58.122550 -20.489139 115 37098ft 449kts
18-Mar-18 02:26 58.069452 -20.275183 116 37097ft 448kts
18-Mar-18 02:27 58.015888 -20.062927 116 37101ft 448kts
18-Mar-18 02:28 57.969785 -19.887672 118 37038ft 447kts
18-Mar-18 02:29 57.902834 -19.644997 118 37035ft 447kts
18-Mar-18 02:30 57.854847 -19.472407 118 37035ft 448kts
18-Mar-18 02:31 57.788694 -19.229084 117 37035ft 448kts
18-Mar-18 02:32 57.731290 -19.022317 118 37036ft 448kts
18-Mar-18 02:33 57.683084 -18.850897 118 37036ft 447kts
18-Mar-18 02:34 57.624733 -18.645351 118 37036ft 446kts
18-Mar-18 02:35 57.556556 -18.407488 118 37037ft 446kts
18-Mar-18 02:36 57.507614 -18.238225 118 37037ft 446kts
18-Mar-18 02:37 57.448380 -18.035043 118 37038ft 446kts
18-Mar-18 02:38 57.389122 -17.833485 118 37039ft 445kts
18-Mar-18 02:39 57.329440 -17.632270 118 37039ft 444kts
18-Mar-18 02:40 57.269660 -17.432455 118 37040ft 444kts
18-Mar-18 02:41 57.209586 -17.233327 118 37041ft 444kts
18-Mar-18 02:42 57.149059 -17.034413 118 37042ft 443kts
18-Mar-18 02:43 57.088488 -16.837030 118 37043ft 443kts
18-Mar-18 02:44 57.027662 -16.640462 118 37044ft 443kts
18-Mar-18 02:45 56.966381 -16.444084 118 37045ft 442kts
18-Mar-18 02:46 56.905044 -16.249106 118 37046ft 442kts
18-Mar-18 02:47 56.843407 -16.054807 118 37047ft 442kts
18-Mar-18 02:48 56.781385 -15.860849 117 37048ft 440kts
18-Mar-18 02:49 56.719411 -15.668605 117 37049ft 440kts
18-Mar-18 02:50 56.657096 -15.476090 117 37050ft 440kts
18-Mar-18 02:51 56.594811 -15.284957 118 37051ft 440kts
18-Mar-18 02:52 56.531744 -15.095309 118 37172ft 439kts
18-Mar-18 02:53 56.459880 -14.915237 128 37195ft 443kts
18-Mar-18 02:54 56.376702 -14.750416 128 37196ft 445kts
18-Mar-18 02:55 56.294030 -14.585157 127 37195ft 444kts
18-Mar-18 02:56 56.211764 -14.418706 126 37195ft 444kts
18-Mar-18 02:57 56.129376 -14.253736 127 37194ft 444kts
18-Mar-18 02:58 56.046158 -14.090392 127 37194ft 445kts
18-Mar-18 02:59 55.978577 -13.909213 109 37193ft 435kts
18-Mar-18 03:00 55.932650 -13.710714 108 37192ft 432kts
18-Mar-18 03:01 55.886294 -13.512820 108 37193ft 434kts
18-Mar-18 03:02 55.840332 -13.313575 107 37192ft 434kts
18-Mar-18 03:03 55.794049 -13.115341 108 37192ft 435kts
18-Mar-18 03:04 55.746876 -12.917113 108 37191ft 434kts
18-Mar-18 03:05 55.699536 -12.720368 108 37190ft 433kts
18-Mar-18 03:06 55.651979 -12.524502 108 37187ft 433kts
18-Mar-18 03:07 55.604083 -12.328991 108 37186ft 432kts
18-Mar-18 03:08 55.556054 -12.134653 108 37183ft 432kts
18-Mar-18 03:09 55.507696 -11.940763 108 37180ft 432kts
18-Mar-18 03:10 55.458900 -11.746802 109 37176ft 432kts
18-Mar-18 03:11 55.409882 -11.553645 109 37173ft 433kts
18-Mar-18 03:12 55.360325 -11.360022 109 37170ft 434kts
18-Mar-18 03:13 55.310491 -11.167025 109 37165ft 434kts
18-Mar-18 03:14 55.260314 -10.974339 110 37160ft 435kts
18-Mar-18 03:15 55.209672 -10.781531 110 37157ft 435kts
18-Mar-18 03:16 55.158866 -10.589713 110 37179ft 435kts
18-Mar-18 03:17 55.108315 -10.397892 110 37173ft 435kts
18-Mar-18 03:18 55.056374 -10.206352 110 37139ft 436kts
18-Mar-18 03:19 55.004443 -10.015421 108 37171ft 436kts
18-Mar-18 03:20 54.967983 -9.814825 102 37174ft 432kts
18-Mar-18 03:21 54.934022 -9.614521 103 37175ft 432kts
18-Mar-18 03:22 54.899271 -9.414507 102 37170ft 433kts
18-Mar-18 03:23 54.865694 -9.213134 103 37173ft 433kts
18-Mar-18 03:24 54.830948 -9.012986 103 37177ft 434kts
18-Mar-18 03:25 54.795656 -8.813059 103 37178ft 434kts
18-Mar-18 03:26 54.759834 -8.612652 104 37169ft 434kts
18-Mar-18 03:27 54.723742 -8.412974 104 37186ft 436kts
18-Mar-18 03:28 54.687094 -8.212319 104 37167ft 437kts
18-Mar-18 03:29 54.650111 -8.012224 104 37164ft 437kts
18-Mar-18 03:30 54.612814 -7.812410 105 37153ft 438kts
18-Mar-18 03:31 54.575045 -7.612258 105 37135ft 438kts
18-Mar-18 03:32 54.537063 -7.413175 105 37127ft 437kts
18-Mar-18 03:33 54.498864 -7.214916 105 37128ft 436kts
18-Mar-18 03:34 54.460324 -7.016921 105 37133ft 435kts
18-Mar-18 03:35 54.421558 -6.819828 106 37139ft 436kts
18-Mar-18 03:36 54.382417 -6.622831 106 37145ft 437kts
18-Mar-18 03:37 54.342726 -6.425073 106 37148ft 438kts
18-Mar-18 03:38 54.302755 -6.227887 106 37142ft 439kts
18-Mar-18 03:39 54.262153 -6.029600 107 37152ft 441kts
18-Mar-18 03:40 54.221310 -5.832101 107 37138ft 441kts
18-Mar-18 03:41 54.180225 -5.635372 107 37113ft 439kts
18-Mar-18 03:42 54.138804 -5.438951 107 37117ft 438kts
18-Mar-18 03:43 54.097328 -5.244152 107 37104ft 437kts
18-Mar-18 03:44 54.055655 -5.050276 107 37082ft 435kts
18-Mar-18 03:45 54.013809 -4.856602 107 37081ft 435kts
18-Mar-18 03:46 53.971760 -4.662939 108 37082ft 441kts
18-Mar-18 03:47 53.928371 -4.468537 109 37078ft 440kts
18-Mar-18 03:48 53.873456 -4.283555 123 37023ft 442kts
18-Mar-18 03:49 53.802595 -4.114133 122 36920ft 441kts
18-Mar-18 03:50 53.732731 -3.943234 122 36852ft 441kts
18-Mar-18 03:51 53.662150 -3.774233 122 36778ft 441kts
18-Mar-18 03:52 53.591461 -3.605595 123 36697ft 441kts
18-Mar-18 03:53 53.520856 -3.436240 123 36522ft 441kts
18-Mar-18 03:54 53.449603 -3.268841 123 36473ft 441kts
18-Mar-18 03:55 53.378041 -3.101921 124 36581ft 441kts
18-Mar-18 03:56 53.304230 -2.936771 125 36827ft 443kts
18-Mar-18 03:57 53.255170 -2.827625 124 36995ft 443kts
18-Mar-18 03:58 53.255170 -2.827625 124 36995ft 443kts
18-Mar-18 03:59 53.255170 -2.827625 124 36995ft 443kts
18-Mar-18 04:00 53.255170 -2.827625 124 36995ft 443kts
18-Mar-18 04:01 53.255170 -2.827625 124 36995ft 443kts
18-Mar-18 04:02 53.255170 -2.827625 124 36995ft 443kts
18-Mar-18 04:03 53.255170 -2.827625 124 36995ft 443kts
18-Mar-18 04:04 53.255170 -2.827625 124 36995ft 443kts
18-Mar-18 04:05 53.255170 -2.827625 124 36995ft 443kts
18-Mar-18 04:06 53.255170 -2.827625 124 36995ft 443kts
18-Mar-18 04:07 53.255170 -2.827625 124 36995ft 443kts
18-Mar-18 04:08 53.255170 -2.827625 124 36995ft 443kts
18-Mar-18 04:09 53.255170 -2.827625 124 36995ft 443kts
18-Mar-18 04:10 53.255170 -2.827625 124 36995ft 443kts
18-Mar-18 04:11 53.255170 -2.827625 124 36995ft 443kts
18-Mar-18 04:12 53.255170 -2.827625 124 36995ft 443kts
18-Mar-18 04:13 53.255170 -2.827625 124 36995ft 443kts
18-Mar-18 04:14 53.255170 -2.827625 124 36995ft 443kts
18-Mar-18 04:15 53.255170 -2.827625 124 36995ft 443kts
18-Mar-18 04:16 53.255170 -2.827625 124 36995ft 443kts
18-Mar-18 04:17 53.255170 -2.827625 124 36995ft 443kts
18-Mar-18 04:18 53.255170 -2.827625 124 36995ft 443kts
18-Mar-18 04:19 53.255170 -2.827625 124 36995ft 443kts
18-Mar-18 04:20 53.255170 -2.827625 124 36995ft 443kts
18-Mar-18 04:21 53.255170 -2.827625 124 36995ft 443kts
18-Mar-18 04:22 53.255170 -2.827625 124 36995ft 443kts
18-Mar-18 04:23 53.255170 -2.827625 124 36995ft 443kts
18-Mar-18 04:24 53.255170 -2.827625 124 36995ft 443kts
18-Mar-18 04:25 53.255170 -2.827625 124 36995ft 443kts
18-Mar-18 04:26 53.255170 -2.827625 124 36995ft 443kts
18-Mar-18 04:27 53.255170 -2.827625 124 36995ft 443kts
18-Mar-18 04:28 53.255170 -2.827625 124 36995ft 443kts
18-Mar-18 04:29 53.255170 -2.827625 124 36995ft 443kts
18-Mar-18 04:30 53.255170 -2.827625 124 36995ft 443kts
18-Mar-18 04:31 53.255170 -2.827625 124 36995ft 443kts
18-Mar-18 04:32 53.255170 -2.827625 124 36995ft 443kts
18-Mar-18 04:33 53.255170 -2.827625 124 36995ft 443kts
18-Mar-18 04:34 53.255170 -2.827625 124 36995ft 443kts
18-Mar-18 04:35 53.255170 -2.827625 124 36995ft 443kts
18-Mar-18 04:36 53.255170 -2.827625 124 36995ft 443kts
18-Mar-18 04:37 53.255170 -2.827625 124 36995ft 443kts
18-Mar-18 04:38 53.255170 -2.827625 124 36995ft 443kts
18-Mar-18 04:39 53.255170 -2.827625 124 36995ft 443kts
18-Mar-18 04:40 53.255170 -2.827625 124 36995ft 443kts
18-Mar-18 04:41 53.255170 -2.827625 124 36995ft 443kts
18-Mar-18 04:42 53.255170 -2.827625 124 36995ft 443kts
18-Mar-18 04:43 53.255170 -2.827625 124 36995ft 443kts
18-Mar-18 04:44 53.255170 -2.827625 124 36995ft 443kts
18-Mar-18 04:45 53.255170 -2.827625 124 36995ft 443kts
18-Mar-18 04:46 53.255170 -2.827625 124 36995ft 443kts
18-Mar-18 04:47 53.255170 -2.827625 124 36995ft 443kts
18-Mar-18 04:48 53.255170 -2.827625 124 36995ft 443kts
18-Mar-18 04:49 53.255170 -2.827625 124 36995ft 443kts
18-Mar-18 04:50 53.255170 -2.827625 124 36995ft 443kts
18-Mar-18 04:51 53.255170 -2.827625 124 36995ft 443kts
18-Mar-18 04:52 53.255170 -2.827625 124 36995ft 443kts
18-Mar-18 04:53 53.255170 -2.827625 124 36995ft 443kts
18-Mar-18 04:54 53.255170 -2.827625 124 36995ft 443kts
18-Mar-18 04:55 53.255170 -2.827625 124 36995ft 443kts
18-Mar-18 04:56 53.255170 -2.827625 124 36995ft 443kts
18-Mar-18 04:57 53.255170 -2.827625 124 36995ft 443kts
18-Mar-18 04:58 53.255170 -2.827625 124 36995ft 443kts
18-Mar-18 04:59 53.255170 -2.827625 124 36995ft 443kts
18-Mar-18 05:00 53.255170 -2.827625 124 36995ft 443kts
18-Mar-18 05:01 53.255170 -2.827625 124 36995ft 443kts
18-Mar-18 05:02 53.255170 -2.827625 124 36995ft 443kts
18-Mar-18 05:03 53.255170 -2.827625 124 36995ft 443kts
18-Mar-18 05:04 53.255170 -2.827625 124 36995ft 443kts
18-Mar-18 05:05 53.255170 -2.827625 124 36995ft 443kts
18-Mar-18 05:06 53.255170 -2.827625 124 36995ft 443kts
18-Mar-18 05:07 53.255170 -2.827625 124 36995ft 443kts
18-Mar-18 05:08 53.255170 -2.827625 124 36995ft 443kts
18-Mar-18 05:09 53.255170 -2.827625 124 36995ft 443kts
18-Mar-18 05:10 53.255170 -2.827625 124 36995ft 443kts
18-Mar-18 05:11 53.255170 -2.827625 124 36995ft 443kts
18-Mar-18 05:12 53.255170 -2.827625 124 36995ft 443kts
18-Mar-18 05:13 53.255170 -2.827625 124 36995ft 443kts
18-Mar-18 05:14 53.255170 -2.827625 124 36995ft 443kts
18-Mar-18 05:15 53.255170 -2.827625 124 36995ft 443kts
18-Mar-18 05:16 53.255170 -2.827625 124 36995ft 443kts
18-Mar-18 05:17 53.255170 -2.827625 124 36995ft 443kts
18-Mar-18 05:18 53.255170 -2.827625 124 36995ft 443kts
18-Mar-18 05:19 53.255170 -2.827625 124 36995ft 443kts
18-Mar-18 05:20 53.255170 -2.827625 124 36995ft 443kts
18-Mar-18 05:21 53.255170 -2.827625 124 36995ft 443kts
18-Mar-18 05:22 53.255170 -2.827625 124 36995ft 443kts
18-Mar-18 05:23 53.255170 -2.827625 124 36995ft 443kts
18-Mar-18 05:24 53.255170 -2.827625 124 36995ft 443kts
18-Mar-18 05:25 53.255170 -2.827625 124 36995ft 443kts
18-Mar-18 05:26 53.255170 -2.827625 124 36995ft 443kts
18-Mar-18 05:27 53.255170 -2.827625 124 36995ft 443kts
18-Mar-18 05:28 53.255170 -2.827625 124 36995ft 443kts
18-Mar-18 05:29 53.255170 -2.827625 124 36995ft 443kts
18-Mar-18 05:30 53.255170 -2.827625 124 36995ft 443kts
18-Mar-18 05:31 53.255170 -2.827625 124 36995ft 443kts
18-Mar-18 05:32 53.255170 -2.827625 124 36995ft 443kts
18-Mar-18 05:33 53.255170 -2.827625 124 36995ft 443kts
18-Mar-18 05:34 53.255170 -2.827625 124 36995ft 443kts
18-Mar-18 05:35 53.255170 -2.827625 124 36995ft 443kts
18-Mar-18 05:36 53.255170 -2.827625 124 36995ft 443kts
18-Mar-18 05:37 53.255170 -2.827625 124 36995ft 443kts
18-Mar-18 05:38 53.255170 -2.827625 124 36995ft 443kts
18-Mar-18 05:39 53.255170 -2.827625 124 36995ft 443kts
18-Mar-18 05:40 53.255170 -2.827625 124 36995ft 443kts
18-Mar-18 05:41 53.255170 -2.827625 124 36995ft 443kts
18-Mar-18 05:42 53.255170 -2.827625 124 36995ft 443kts
18-Mar-18 05:43 53.255170 -2.827625 124 36995ft 443kts
18-Mar-18 05:44 53.255170 -2.827625 124 36995ft 443kts
18-Mar-18 05:45 53.255170 -2.827625 124 36995ft 443kts
18-Mar-18 05:46 53.255170 -2.827625 124 36995ft 443kts
18-Mar-18 05:47 53.255170 -2.827625 124 36995ft 443kts
18-Mar-18 05:48 53.255170 -2.827625 124 36995ft 443kts
18-Mar-18 05:49 53.255170 -2.827625 124 36995ft 443kts
18-Mar-18 05:50 53.255170 -2.827625 124 36995ft 443kts
18-Mar-18 05:51 53.255170 -2.827625 124 36995ft 443kts
18-Mar-18 05:52 53.255170 -2.827625 124 36995ft 443kts
18-Mar-18 05:53 53.255170 -2.827625 124 36995ft 443kts
18-Mar-18 05:54 53.255170 -2.827625 124 36995ft 443kts
18-Mar-18 05:55 53.255170 -2.827625 124 36995ft 443kts
18-Mar-18 05:56 53.255170 -2.827625 124 36995ft 443kts
18-Mar-18 05:57 53.255170 -2.827625 124 36995ft 443kts
18-Mar-18 05:58 53.255170 -2.827625 124 36995ft 443kts
18-Mar-18 05:59 53.255170 -2.827625 124 36995ft 443kts
18-Mar-18 06:00 53.255170 -2.827625 124 36995ft 443kts
18-Mar-18 06:01 53.255170 -2.827625 124 36995ft 443kts
18-Mar-18 06:02 53.255170 -2.827625 124 36995ft 443kts
18-Mar-18 06:03 53.255170 -2.827625 124 36995ft 443kts
18-Mar-18 06:04 53.255170 -2.827625 124 36995ft 443kts
18-Mar-18 06:05 53.255170 -2.827625 124 36995ft 443kts
18-Mar-18 06:06 53.255170 -2.827625 124 36995ft 443kts
18-Mar-18 06:07 53.255170 -2.827625 124 36995ft 443kts
18-Mar-18 06:08 53.255170 -2.827625 124 36995ft 443kts
18-Mar-18 06:09 53.255170 -2.827625 124 36995ft 443kts
18-Mar-18 06:10 53.255170 -2.827625 124 36995ft 443kts
18-Mar-18 06:11 53.255170 -2.827625 124 36995ft 443kts
18-Mar-18 06:12 53.255170 -2.827625 124 36995ft 443kts
18-Mar-18 06:13 53.255170 -2.827625 124 36995ft 443kts
18-Mar-18 06:14 53.255170 -2.827625 124 36995ft 443kts
18-Mar-18 06:15 53.255170 -2.827625 124 36995ft 443kts
18-Mar-18 06:16 53.255170 -2.827625 124 36995ft 443kts
18-Mar-18 06:17 53.255170 -2.827625 124 36995ft 443kts
18-Mar-18 06:18 53.255170 -2.827625 124 36995ft 443kts
18-Mar-18 06:19 53.255170 -2.827625 124 36995ft 443kts
18-Mar-18 06:20 53.255170 -2.827625 124 36995ft 443kts
18-Mar-18 06:21 53.255170 -2.827625 124 36995ft 443kts
18-Mar-18 06:22 53.255170 -2.827625 124 36995ft 443kts
18-Mar-18 06:23 53.255170 -2.827625 124 36995ft 443kts
18-Mar-18 06:24 53.255170 -2.827625 124 36995ft 443kts
18-Mar-18 06:25 53.255170 -2.827625 124 36995ft 443kts
18-Mar-18 06:26 53.255170 -2.827625 124 36995ft 443kts
18-Mar-18 06:27 53.255170 -2.827625 124 36995ft 443kts
18-Mar-18 06:28 53.255170 -2.827625 124 36995ft 443kts
18-Mar-18 06:29 53.255170 -2.827625 124 36995ft 443kts
18-Mar-18 06:30 53.255170 -2.827625 124 36995ft 443kts
18-Mar-18 06:31 53.255170 -2.827625 124 36995ft 443kts
18-Mar-18 06:32 53.255170 -2.827625 124 36995ft 443kts
18-Mar-18 06:33 53.255170 -2.827625 124 36995ft 443kts
18-Mar-18 06:34 53.255170 -2.827625 124 36995ft 443kts
18-Mar-18 06:35 53.255170 -2.827625 124 36995ft 443kts
18-Mar-18 06:36 53.255170 -2.827625 124 36995ft 443kts
18-Mar-18 06:37 53.255170 -2.827625 124 36995ft 443kts
18-Mar-18 06:38 53.255170 -2.827625 124 36995ft 443kts
18-Mar-18 06:39 53.255170 -2.827625 124 36995ft 443kts
18-Mar-18 06:40 53.255170 -2.827625 124 36995ft 443kts
18-Mar-18 06:41 53.255170 -2.827625 124 36995ft 443kts
18-Mar-18 06:42 53.255170 -2.827625 124 36995ft 443kts
18-Mar-18 06:43 53.255170 -2.827625 124 36995ft 443kts
18-Mar-18 06:44 53.255170 -2.827625 124 36995ft 443kts
18-Mar-18 06:45 53.255170 -2.827625 124 36995ft 443kts
18-Mar-18 06:46 53.255170 -2.827625 124 36995ft 443kts
18-Mar-18 06:47 53.255170 -2.827625 124 36995ft 443kts
18-Mar-18 06:48 53.255170 -2.827625 124 36995ft 443kts
18-Mar-18 06:49 53.255170 -2.827625 124 36995ft 443kts
18-Mar-18 06:50 53.255170 -2.827625 124 36995ft 443kts
18-Mar-18 06:51 53.255170 -2.827625 124 36995ft 443kts
18-Mar-18 06:52 53.255170 -2.827625 124 36995ft 443kts
18-Mar-18 06:53 53.255170 -2.827625 124 36995ft 443kts
18-Mar-18 06:54 53.255170 -2.827625 124 36995ft 443kts
18-Mar-18 06:55 53.255170 -2.827625 124 36995ft 443kts
18-Mar-18 06:56 53.255170 -2.827625 124 36995ft 443kts
18-Mar-18 06:57 53.255170 -2.827625 124 36995ft 443kts
18-Mar-18 06:58 53.255170 -2.827625 124 36995ft 443kts
18-Mar-18 06:59 53.255170 -2.827625 124 36995ft 443kts
18-Mar-18 07:00 53.255170 -2.827625 124 36995ft 443kts
18-Mar-18 07:01 53.255170 -2.827625 124 36995ft 443kts
18-Mar-18 07:02 53.255170 -2.827625 124 36995ft 443kts
18-Mar-18 07:03 53.255170 -2.827625 124 36995ft 443kts
18-Mar-18 07:04 53.255170 -2.827625 124 36995ft 443kts
18-Mar-18 07:05 53.255170 -2.827625 124 36995ft 443kts
18-Mar-18 07:06 53.255170 -2.827625 124 36995ft 443kts
18-Mar-18 07:07 53.255170 -2.827625 124 36995ft 443kts
18-Mar-18 07:08 53.255170 -2.827625 124 36995ft 443kts
18-Mar-18 07:09 53.255170 -2.827625 124 36995ft 443kts
18-Mar-18 07:10 53.255170 -2.827625 124 36995ft 443kts
18-Mar-18 07:11 53.255170 -2.827625 124 36995ft 443kts
18-Mar-18 07:12 53.255170 -2.827625 124 36995ft 443kts
18-Mar-18 07:13 53.255170 -2.827625 124 36995ft 443kts
18-Mar-18 07:14 53.255170 -2.827625 124 36995ft 443kts
18-Mar-18 07:15 53.255170 -2.827625 124 36995ft 443kts
18-Mar-18 07:16 53.255170 -2.827625 124 36995ft 443kts
18-Mar-18 07:17 53.255170 -2.827625 124 36995ft 443kts
18-Mar-18 07:18 53.255170 -2.827625 124 36995ft 443kts
18-Mar-18 07:19 53.255170 -2.827625 124 36995ft 443kts
18-Mar-18 07:20 53.255170 -2.827625 124 36995ft 443kts
18-Mar-18 07:21 53.255170 -2.827625 124 36995ft 443kts
18-Mar-18 07:22 53.255170 -2.827625 124 36995ft 443kts
18-Mar-18 07:23 53.255170 -2.827625 124 36995ft 443kts
18-Mar-18 07:24 53.255170 -2.827625 124 36995ft 443kts
18-Mar-18 07:25 53.255170 -2.827625 124 36995ft 443kts
18-Mar-18 07:26 53.255170 -2.827625 124 36995ft 443kts
18-Mar-18 07:27 53.255170 -2.827625 124 36995ft 443kts
18-Mar-18 07:28 53.255170 -2.827625 124 36995ft 443kts
18-Mar-18 07:29 53.255170 -2.827625 124 36995ft 443kts
18-Mar-18 07:30 53.255170 -2.827625 124 36995ft 443kts
18-Mar-18 07:31 53.255170 -2.827625 124 36995ft 443kts
18-Mar-18 07:32 53.255170 -2.827625 124 36995ft 443kts
18-Mar-18 07:33 53.255170 -2.827625 124 36995ft 443kts
18-Mar-18 07:34 53.255170 -2.827625 124 36995ft 443kts
18-Mar-18 07:35 53.255170 -2.827625 124 36995ft 443kts
18-Mar-18 07:36 53.255170 -2.827625 124 36995ft 443kts
18-Mar-18 07:37 53.255170 -2.827625 124 36995ft 443kts
18-Mar-18 07:38 53.255170 -2.827625 124 36995ft 443kts
18-Mar-18 07:39 53.255170 -2.827625 124 36995ft 443kts
18-Mar-18 07:40 53.255170 -2.827625 124 36995ft 443kts
18-Mar-18 07:41 53.255170 -2.827625 124 36995ft 443kts
18-Mar-18 07:42 53.255170 -2.827625 124 36995ft 443kts
18-Mar-18 07:43 53.255170 -2.827625 124 36995ft 443kts
18-Mar-18 07:44 53.255170 -2.827625 124 36995ft 443kts
18-Mar-18 07:45 53.255170 -2.827625 124 36995ft 443kts
18-Mar-18 07:46 53.255170 -2.827625 124 36995ft 443kts
18-Mar-18 07:47 53.255170 -2.827625 124 36995ft 443kts
18-Mar-18 07:48 53.255170 -2.827625 124 36995ft 443kts
18-Mar-18 07:49 53.255170 -2.827625 124 36995ft 443kts
18-Mar-18 07:50 53.255170 -2.827625 124 36995ft 443kts
18-Mar-18 07:51 53.255170 -2.827625 124 36995ft 443kts
18-Mar-18 07:52 53.255170 -2.827625 124 36995ft 443kts
18-Mar-18 07:53 53.255170 -2.827625 124 36995ft 443kts
18-Mar-18 07:54 53.255170 -2.827625 124 36995ft 443kts
18-Mar-18 07:55 53.255170 -2.827625 124 36995ft 443kts
18-Mar-18 07:56 53.255170 -2.827625 124 36995ft 443kts
18-Mar-18 07:57 53.255170 -2.827625 124 36995ft 443kts
18-Mar-18 07:58 53.255170 -2.827625 124 36995ft 443kts
18-Mar-18 07:59 53.255170 -2.827625 124 36995ft 443kts
18-Mar-18 08:00 53.255170 -2.827625 124 36995ft 443kts
18-Mar-18 08:01 53.255170 -2.827625 124 36995ft 443kts
18-Mar-18 08:02 53.229231 -2.769542 125 37018ft 443kts
18-Mar-18 08:03 53.207942 -2.722268 125 37019ft 441kts
18-Mar-18 08:04 53.146727 -2.586455 125 36973ft 441kts
18-Mar-18 08:05 53.076885 -2.418978 123 36925ft 440kts
18-Mar-18 08:06 52.994920 -2.268754 142 36881ft 443kts
18-Mar-18 08:07 52.894473 -2.162583 145 35684ft 418kts
18-Mar-18 08:08 52.797459 -2.062394 145 33955ft 402kts
18-Mar-18 08:09 52.704949 -1.966105 144 32338ft 384kts
18-Mar-18 08:10 52.616903 -1.874615 145 30816ft 364kts
18-Mar-18 08:11 52.532909 -1.788181 145 29309ft 347kts
18-Mar-18 08:12 52.452924 -1.705715 145 27726ft 333kts
18-Mar-18 08:13 52.375802 -1.627142 145 26108ft 320kts
18-Mar-18 08:14 52.301500 -1.551989 145 24554ft 306kts
18-Mar-18 08:15 52.230739 -1.480598 145 23017ft 292kts
18-Mar-18 08:16 52.165009 -1.394622 136 21417ft 305kts
18-Mar-18 08:17 52.101557 -1.305145 137 19795ft 297kts
18-Mar-18 08:18 52.039583 -1.219342 137 18203ft 289kts
18-Mar-18 08:19 51.978954 -1.135672 137 16668ft 280kts
18-Mar-18 08:20 51.921448 -1.056313 137 15256ft 268kts
18-Mar-18 08:21 51.865488 -0.979612 137 13750ft 260kts
18-Mar-18 08:22 51.826921 -0.878708 114 12229ft 270kts
18-Mar-18 08:23 51.794612 -0.770864 115 10769ft 262kts
18-Mar-18 08:24 51.763185 -0.669171 115 9736ft 240kts
18-Mar-18 08:25 51.731258 -0.572463 128 8665ft 234kts
18-Mar-18 08:26 51.670396 -0.542939 174 7540ft 246kts
18-Mar-18 08:27 51.605743 -0.576958 220 7005ft 262kts
18-Mar-18 08:28 51.589176 -0.690416 277 6800ft 278kts
18-Mar-18 08:29 51.583336 -0.810716 237 5670ft 263kts
18-Mar-18 08:30 51.528981 -0.857747 170 5014ft 204kts
18-Mar-18 08:31 51.496464 -0.805414 84 3940ft 163kts
18-Mar-18 08:32 51.479265 -0.747617 111 3192ft 145kts
18-Mar-18 08:33 51.476598 -0.689227 87 2552ft 126kts
18-Mar-18 08:34 51.477003 -0.632054 87 1860ft 131kts
18-Mar-18 08:35 51.477039 -0.572034 86 1132ft 135kts
18-Mar-18 08:36 51.477402 -0.512214 86 394ft 133kts
18-Mar-18 08:37 51.477655 -0.458496 90 96ft 67kts
18-Mar-18 08:38 51.476438 -0.442445 160 96ft 12kts
18-Mar-18 08:39 51.476014 -0.446543 267 96ft 9kts
18-Mar-18 08:40 51.475963 -0.450240 270 96ft 7kts
18-Mar-18 08:41 51.475973 -0.453067 270 96ft 5kts
18-Mar-18 08:42 51.475951 -0.455166 268 96ft 3kts
18-Mar-18 08:43 51.475930 -0.460431 269 96ft 21kts
18-Mar-18 08:44 51.475858 -0.468852 265 96ft 16kts
18-Mar-18 08:45 51.475832 -0.475523 269 96ft 13kts
18-Mar-18 08:46 51.474397 -0.478740 178 96ft 9kts
18-Mar-18 08:47 51.473078 -0.479969 271 96ft 5kts
18-Mar-18 08:48 51.473083 -0.480254 271 96ft 0kts
18-Mar-18 08:49 51.473083 -0.480254 271 96ft 0kts
18-Mar-18 08:50 51.473083 -0.480254 271 96ft 0kts
18-Mar-18 08:51 51.473083 -0.480254 271 96ft 0kts

Navigation Log

Ident Type
Flight plan parsing failed, navigation log unavailable